Time;durP1;ratioP1;P1;durP2;ratioP2;P2;SDS_P1;SDS_P2;PMS_P1;PMS_P2;Temp;Humidity;BMP_temperature;BMP_pressure;BME280_temperature;BME280_humidity;BME280_pressure;Samples;Min_cycle;Max_cycle;Signal;HPM_P1;HPM_P2
2022/03/23 00:01:34;;;;;;;12.45;8.07;;;9.50;99.90;;;;;;5021631;28;20053;-70
2022/03/23 00:04:01;;;;;;;16.77;7.78;;;9.50;99.90;;;;;;5001908;28;20038;-72
2022/03/23 00:06:27;;;;;;;12.52;7.38;;;9.50;99.90;;;;;;5000532;28;20053;-71
2022/03/23 00:08:53;;;;;;;10.77;8.10;;;9.40;99.90;;;;;;4994938;28;20168;-71
2022/03/23 00:11:19;;;;;;;13.52;8.30;;;9.40;99.90;;;;;;4999010;28;20248;-71
2022/03/23 00:13:45;;;;;;;15.30;7.93;;;9.50;99.90;;;;;;4996011;28;20045;-71
2022/03/23 00:16:12;;;;;;;15.70;8.13;;;9.50;99.90;;;;;;4998314;28;20054;-71
2022/03/23 00:18:37;;;;;;;18.15;8.40;;;9.40;99.90;;;;;;4997254;28;20038;-71
2022/03/23 00:21:03;;;;;;;13.32;7.68;;;9.50;99.90;;;;;;4999761;28;20052;-71
2022/03/23 00:23:29;;;;;;;13.05;8.20;;;9.50;99.90;;;;;;5027257;28;20031;-71
2022/03/23 00:25:55;;;;;;;16.23;8.23;;;9.50;99.90;;;;;;4998999;28;20052;-71
2022/03/23 00:28:20;;;;;;;10.80;7.18;;;9.50;99.90;;;;;;5002204;28;20401;-72
2022/03/23 00:30:50;;;;;;;13.05;7.82;;;9.50;99.90;;;;;;4995203;28;20761;-72
2022/03/23 00:33:16;;;;;;;14.05;8.02;;;9.50;99.90;;;;;;5001073;28;20041;-71
2022/03/23 00:35:43;;;;;;;13.27;8.05;;;9.50;99.90;;;;;;4999809;28;20054;-71
2022/03/23 00:38:09;;;;;;;11.90;7.68;;;9.40;99.90;;;;;;5028302;28;20050;-71
2022/03/23 00:40:35;;;;;;;14.48;8.18;;;9.40;99.90;;;;;;5010328;28;20070;-71
2022/03/23 00:43:01;;;;;;;14.05;8.18;;;9.40;99.90;;;;;;5000757;28;20066;-71
2022/03/23 00:45:29;;;;;;;14.02;8.30;;;9.40;99.90;;;;;;4996386;28;20058;-70
2022/03/23 00:47:55;;;;;;;12.98;8.13;;;9.50;99.90;;;;;;4980618;28;20223;-72
2022/03/23 00:50:21;;;;;;;13.85;7.85;;;9.40;99.90;;;;;;5007092;28;20039;-71
2022/03/23 00:52:47;;;;;;;14.73;8.10;;;9.40;99.90;;;;;;5008947;28;20148;-70
2022/03/23 00:55:15;;;;;;;19.08;8.02;;;9.40;99.90;;;;;;4991726;28;20046;-70
2022/03/23 00:57:42;;;;;;;13.80;7.65;;;9.30;99.90;;;;;;4997162;28;20061;-71
2022/03/23 01:00:12;;;;;;;11.40;7.95;;;9.30;99.90;;;;;;5032882;28;20045;-70
2022/03/23 01:02:43;;;;;;;13.65;8.07;;;9.30;99.90;;;;;;5028104;28;20476;-71
2022/03/23 01:05:09;;;;;;;16.63;8.10;;;9.30;99.90;;;;;;5011670;28;20038;-71
2022/03/23 01:07:36;;;;;;;14.55;7.78;;;9.20;99.90;;;;;;4997669;28;20174;-71
2022/03/23 01:10:04;;;;;;;13.77;7.43;;;9.20;99.90;;;;;;5027131;28;20396;-71
2022/03/23 01:12:30;;;;;;;17.55;8.07;;;9.20;99.90;;;;;;5027260;28;20034;-71
2022/03/23 01:14:57;;;;;;;13.15;8.00;;;9.20;99.90;;;;;;4994372;28;20893;-71
2022/03/23 01:17:23;;;;;;;11.10;7.25;;;9.20;99.90;;;;;;4996270;28;20884;-71
2022/03/23 01:19:49;;;;;;;14.80;7.78;;;9.20;99.90;;;;;;5030542;28;20487;-71
2022/03/23 01:22:16;;;;;;;12.40;7.55;;;9.20;99.90;;;;;;4992401;28;20134;-71
2022/03/23 01:24:43;;;;;;;14.25;7.82;;;9.20;99.90;;;;;;5002674;28;20042;-71
2022/03/23 01:27:09;;;;;;;12.30;8.07;;;9.20;99.90;;;;;;5027520;28;20105;-71
2022/03/23 01:29:36;;;;;;;12.20;7.47;;;9.30;99.90;;;;;;4995830;28;20057;-71
2022/03/23 01:32:02;;;;;;;15.05;8.20;;;9.30;99.90;;;;;;4996025;28;20508;-69
2022/03/23 01:34:27;;;;;;;17.00;7.38;;;9.30;99.90;;;;;;4996341;28;20038;-71
2022/03/23 01:36:53;;;;;;;15.98;7.80;;;9.40;99.90;;;;;;4995140;28;20330;-71
2022/03/23 01:39:19;;;;;;;13.60;7.82;;;9.40;99.90;;;;;;4995096;28;20049;-71
2022/03/23 01:41:45;;;;;;;12.35;7.97;;;9.40;99.90;;;;;;4998289;28;20038;-70
2022/03/23 01:44:20;;;;;;;12.43;7.97;;;9.30;99.90;;;;;;5026070;28;20042;-71
2022/03/23 01:47:07;;;;;;;11.98;8.30;;;9.30;99.90;;;;;;5013350;28;20038;-70
2022/03/23 01:49:34;;;;;;;12.80;7.85;;;9.20;99.90;;;;;;5000584;28;20107;-70
2022/03/23 01:52:01;;;;;;;14.35;7.82;;;9.20;99.90;;;;;;5000162;28;20038;-71
2022/03/23 01:54:26;;;;;;;13.07;7.93;;;9.10;99.90;;;;;;4997348;28;20547;-71
2022/03/23 01:56:54;;;;;;;12.88;7.95;;;9.00;99.90;;;;;;5041531;28;20101;-70
2022/03/23 01:59:20;;;;;;;12.40;7.80;;;9.00;99.90;;;;;;5001131;28;20117;-71
2022/03/23 02:01:46;;;;;;;12.80;7.70;;;9.00;99.90;;;;;;5029913;28;20138;-70
2022/03/23 02:04:13;;;;;;;11.98;7.63;;;8.90;99.90;;;;;;5001617;28;20042;-71
2022/03/23 02:06:39;;;;;;;15.93;8.13;;;8.90;99.90;;;;;;5013537;28;20133;-71
2022/03/23 02:09:05;;;;;;;13.00;7.57;;;8.90;99.90;;;;;;5032064;28;20064;-70
2022/03/23 02:11:36;;;;;;;15.43;7.78;;;8.90;99.90;;;;;;5025281;28;20073;-71
2022/03/23 02:14:02;;;;;;;15.57;7.93;;;8.90;99.90;;;;;;4998345;28;20464;-70
2022/03/23 02:16:27;;;;;;;17.23;8.23;;;8.90;99.90;;;;;;4998969;28;20046;-70
2022/03/23 02:18:53;;;;;;;10.98;7.90;;;8.80;99.90;;;;;;5003288;28;20068;-71
2022/03/23 02:21:19;;;;;;;11.77;7.32;;;8.90;99.90;;;;;;5005615;28;20037;-72
2022/03/23 02:23:45;;;;;;;11.27;7.75;;;8.80;99.90;;;;;;5000229;28;20134;-71
2022/03/23 02:26:12;;;;;;;12.43;7.63;;;8.90;99.90;;;;;;4996513;28;20053;-71
2022/03/23 02:28:38;;;;;;;12.32;7.68;;;8.80;99.90;;;;;;4998376;28;20042;-71
2022/03/23 02:31:04;;;;;;;13.15;8.05;;;8.80;99.90;;;;;;4997504;28;20042;-70
2022/03/23 02:33:29;;;;;;;13.95;8.05;;;8.80;99.90;;;;;;5030046;28;20040;-71
2022/03/23 02:35:55;;;;;;;14.20;7.95;;;8.70;99.90;;;;;;4997178;28;20476;-70
2022/03/23 02:38:21;;;;;;;11.40;7.55;;;8.80;99.90;;;;;;4998416;28;20042;-71
2022/03/23 02:40:47;;;;;;;12.27;7.50;;;8.80;99.90;;;;;;5029386;28;20031;-70
2022/03/23 02:43:14;;;;;;;11.73;7.90;;;8.80;99.90;;;;;;5033506;28;20050;-70
2022/03/23 02:45:39;;;;;;;15.05;8.20;;;8.80;99.90;;;;;;5001604;28;20041;-70
2022/03/23 02:48:06;;;;;;;12.57;7.97;;;8.80;99.90;;;;;;5033355;28;20373;-70
2022/03/23 02:50:34;;;;;;;14.25;8.00;;;8.80;99.90;;;;;;5013342;28;20084;-70
2022/03/23 03:04:16;;;;;;;12.73;7.40;;;9.20;99.90;;;;;;4997185;28;20895;-71
2022/03/23 03:06:42;;;;;;;11.32;7.75;;;9.20;99.90;;;;;;5000340;28;20038;-71
2022/03/23 03:09:08;;;;;;;13.68;8.10;;;9.20;99.90;;;;;;5013308;28;20064;-71
2022/03/23 03:11:34;;;;;;;11.25;7.65;;;9.10;99.90;;;;;;5002086;28;20045;-72
2022/03/23 03:14:00;;;;;;;12.98;7.72;;;9.10;99.90;;;;;;5026751;28;20038;-71
2022/03/23 03:16:26;;;;;;;13.23;8.13;;;9.10;99.90;;;;;;5032346;28;20052;-71
2022/03/23 03:18:52;;;;;;;11.95;7.78;;;9.10;99.90;;;;;;4998883;28;20030;-71
2022/03/23 03:21:18;;;;;;;12.10;7.95;;;9.00;99.90;;;;;;4997147;28;20547;-71
2022/03/23 03:23:46;;;;;;;10.70;7.60;;;8.90;99.90;;;;;;4996258;28;20069;-71
2022/03/23 03:26:13;;;;;;;13.85;8.20;;;8.90;99.90;;;;;;4996910;28;20045;-71
2022/03/23 03:28:40;;;;;;;11.60;7.82;;;8.80;99.90;;;;;;5000710;28;20100;-71
2022/03/23 03:31:08;;;;;;;12.95;7.90;;;8.80;99.90;;;;;;4996906;28;20038;-70
2022/03/23 03:33:35;;;;;;;12.05;7.57;;;8.80;99.90;;;;;;4998937;28;20045;-71
2022/03/23 03:36:01;;;;;;;11.70;8.13;;;8.70;99.90;;;;;;4998659;28;20065;-71
2022/03/23 03:38:27;;;;;;;12.23;8.20;;;8.70;99.90;;;;;;4995150;28;20104;-70
2022/03/23 03:40:54;;;;;;;16.88;8.30;;;8.70;99.90;;;;;;5029858;28;20037;-71
2022/03/23 03:43:20;;;;;;;12.45;8.05;;;8.60;99.90;;;;;;5010675;28;20056;-71
2022/03/23 03:45:46;;;;;;;11.98;8.48;;;8.50;99.90;;;;;;4999701;28;20069;-71
2022/03/23 03:48:13;;;;;;;12.73;7.78;;;8.50;99.90;;;;;;5030985;28;20048;-71
2022/03/23 03:50:40;;;;;;;12.98;7.90;;;8.50;99.90;;;;;;5009217;28;20062;-71
2022/03/23 03:53:09;;;;;;;13.25;7.82;;;8.60;99.90;;;;;;5034507;28;20516;-71
2022/03/23 03:55:39;;;;;;;10.85;7.32;;;8.60;99.90;;;;;;4998329;28;20056;-71
2022/03/23 03:58:07;;;;;;;13.45;7.80;;;8.60;99.90;;;;;;5033038;28;20445;-71
2022/03/23 04:00:35;;;;;;;11.48;7.60;;;8.60;99.90;;;;;;5029705;28;20034;-71
2022/03/23 04:03:04;;;;;;;11.50;7.28;;;8.60;99.90;;;;;;5031658;28;20125;-72
2022/03/23 04:05:33;;;;;;;9.70;6.85;;;8.60;99.90;;;;;;5027676;28;20069;-71
2022/03/23 04:07:59;;;;;;;12.40;7.43;;;8.60;99.90;;;;;;5029668;28;20046;-71
2022/03/23 04:10:25;;;;;;;9.18;7.38;;;8.60;99.90;;;;;;5015224;28;20038;-71
2022/03/23 04:12:52;;;;;;;10.00;7.43;;;8.60;99.90;;;;;;5029914;28;20046;-71
2022/03/23 04:15:20;;;;;;;13.00;8.20;;;8.60;99.90;;;;;;4983364;28;20512;-71
2022/03/23 04:17:47;;;;;;;13.77;7.70;;;8.50;99.90;;;;;;4998845;28;20034;-72
2022/03/23 04:20:14;;;;;;;13.57;7.80;;;8.50;99.90;;;;;;4987932;28;20085;-71
2022/03/23 04:22:39;;;;;;;13.75;8.45;;;8.60;99.90;;;;;;5027411;28;20089;-71
2022/03/23 04:25:10;;;;;;;14.23;7.90;;;8.60;99.90;;;;;;4999896;28;20030;-71
2022/03/23 04:27:45;;;;;;;10.85;8.05;;;8.60;99.90;;;;;;4997535;28;20076;-71
2022/03/23 04:30:12;;;;;;;10.18;7.65;;;8.60;99.90;;;;;;5033662;28;20074;-71
2022/03/23 04:32:38;;;;;;;14.13;7.72;;;8.60;99.90;;;;;;5029630;28;20058;-72
2022/03/23 04:35:07;;;;;;;11.38;7.63;;;8.60;99.90;;;;;;4997512;28;20053;-70
2022/03/23 04:37:33;;;;;;;12.73;7.78;;;8.60;99.90;;;;;;5029044;28;20030;-70
2022/03/23 04:40:00;;;;;;;17.40;8.02;;;8.60;99.90;;;;;;5030180;28;20476;-71
2022/03/23 04:42:26;;;;;;;15.85;7.72;;;8.60;99.90;;;;;;4996564;28;20093;-70
2022/03/23 04:44:51;;;;;;;21.92;8.50;;;8.60;99.90;;;;;;5001133;28;20571;-70
2022/03/23 04:47:17;;;;;;;11.77;8.30;;;8.70;99.90;;;;;;5024597;28;20039;-71
2022/03/23 04:49:43;;;;;;;14.52;8.05;;;8.70;99.90;;;;;;5014560;28;20026;-71
2022/03/23 04:52:09;;;;;;;12.55;7.75;;;8.80;99.90;;;;;;4999433;28;20420;-70
2022/03/23 04:54:35;;;;;;;13.25;7.47;;;8.80;99.90;;;;;;4999100;28;20031;-72
2022/03/23 04:57:02;;;;;;;11.10;7.70;;;8.80;99.90;;;;;;5031170;28;20034;-73
2022/03/23 04:59:28;;;;;;;11.32;7.70;;;8.80;99.90;;;;;;4986509;28;20141;-72
2022/03/23 05:01:53;;;;;;;10.52;7.15;;;8.80;99.90;;;;;;5031927;28;20042;-70
2022/03/23 05:04:20;;;;;;;11.50;7.72;;;8.80;99.90;;;;;;5022352;28;20066;-71
2022/03/23 05:06:45;;;;;;;12.32;7.55;;;8.80;99.90;;;;;;4998101;28;20156;-71
2022/03/23 05:09:11;;;;;;;12.32;7.18;;;8.70;99.90;;;;;;5025736;28;20489;-71
2022/03/23 05:11:37;;;;;;;12.23;7.70;;;8.70;99.90;;;;;;4995554;28;20038;-71
2022/03/23 05:14:03;;;;;;;10.60;7.43;;;8.70;99.90;;;;;;4994494;28;21059;-71
2022/03/23 05:16:29;;;;;;;12.25;7.32;;;8.70;99.90;;;;;;5032207;28;20041;-71
2022/03/23 05:18:55;;;;;;;13.05;7.60;;;8.80;99.90;;;;;;5015241;28;20434;-73
2022/03/23 05:21:21;;;;;;;11.98;7.25;;;8.80;99.90;;;;;;5035125;28;20129;-71
2022/03/23 05:23:47;;;;;;;11.88;7.93;;;8.80;99.90;;;;;;4997883;28;20057;-71
2022/03/23 05:26:13;;;;;;;18.77;8.15;;;8.80;99.90;;;;;;5001377;28;20038;-72
2022/03/23 05:28:39;;;;;;;16.45;7.22;;;8.80;99.90;;;;;;5004023;28;20057;-71
2022/03/23 05:31:05;;;;;;;12.93;7.47;;;8.80;99.90;;;;;;4999174;28;20039;-70
2022/03/23 05:33:30;;;;;;;14.80;8.40;;;8.80;99.90;;;;;;5036823;28;20396;-71
2022/03/23 05:35:56;;;;;;;13.35;7.63;;;8.80;99.90;;;;;;4999244;28;20196;-71
2022/03/23 05:38:22;;;;;;;11.88;7.55;;;8.90;99.90;;;;;;5035937;28;20112;-71
2022/03/23 05:40:48;;;;;;;11.90;8.00;;;8.90;99.90;;;;;;5001777;28;20389;-72
2022/03/23 05:43:13;;;;;;;11.45;7.47;;;9.00;99.90;;;;;;4999825;28;20038;-71
2022/03/23 05:45:39;;;;;;;12.63;7.68;;;9.00;99.90;;;;;;5031689;28;20035;-71
2022/03/23 05:48:05;;;;;;;11.95;7.95;;;9.10;99.90;;;;;;5034535;28;20042;-72
2022/03/23 05:50:33;;;;;;;14.02;8.23;;;9.10;99.90;;;;;;5030883;28;20045;-70
2022/03/23 05:52:59;;;;;;;13.38;8.30;;;9.10;99.90;;;;;;4997108;28;20046;-72
2022/03/23 05:55:24;;;;;;;11.77;7.53;;;9.00;99.90;;;;;;4995830;28;20379;-71
2022/03/23 05:57:50;;;;;;;12.63;8.10;;;9.00;99.90;;;;;;5001454;28;20026;-72
2022/03/23 06:00:16;;;;;;;18.00;8.43;;;9.10;99.90;;;;;;5001628;28;20746;-71
2022/03/23 06:02:42;;;;;;;12.48;7.57;;;9.10;99.90;;;;;;5015523;28;20092;-72
2022/03/23 06:05:09;;;;;;;13.25;7.45;;;9.10;99.90;;;;;;5002508;28;20145;-72
2022/03/23 06:07:35;;;;;;;12.35;7.75;;;9.10;99.90;;;;;;5014729;28;20031;-71
2022/03/23 06:10:07;;;;;;;14.07;8.15;;;9.20;99.90;;;;;;5026470;28;20038;-71
2022/03/23 06:12:33;;;;;;;13.68;7.90;;;9.30;99.90;;;;;;5030656;28;20052;-72
2022/03/23 06:14:59;;;;;;;14.98;7.47;;;9.30;99.90;;;;;;5036908;28;20050;-71
2022/03/23 06:17:25;;;;;;;16.50;8.20;;;9.40;99.90;;;;;;4999241;28;20042;-71
2022/03/23 06:19:50;;;;;;;14.90;7.78;;;9.50;99.90;;;;;;5004558;28;20034;-72
2022/03/23 06:22:16;;;;;;;10.52;7.15;;;9.60;99.90;;;;;;5014663;28;20049;-73
2022/03/23 06:24:42;;;;;;;12.82;7.90;;;9.60;99.90;;;;;;5000162;28;20081;-71
2022/03/23 06:27:08;;;;;;;11.43;7.55;;;9.70;99.90;;;;;;4998933;28;20848;-72
2022/03/23 06:29:35;;;;;;;16.45;8.02;;;9.70;99.90;;;;;;5031223;28;20038;-71
2022/03/23 06:32:01;;;;;;;13.88;7.78;;;9.80;99.90;;;;;;4997756;28;20045;-71
2022/03/23 06:34:26;;;;;;;12.45;7.82;;;9.80;99.90;;;;;;4999475;28;20042;-72
2022/03/23 06:36:52;;;;;;;12.48;7.97;;;9.90;99.90;;;;;;4998015;28;20046;-72
2022/03/23 06:39:18;;;;;;;16.35;7.60;;;9.90;99.90;;;;;;4960284;28;20038;-72
2022/03/23 06:41:44;;;;;;;11.57;7.60;;;10.00;99.90;;;;;;4983041;28;20045;-72
2022/03/23 06:44:10;;;;;;;14.07;8.00;;;10.00;99.90;;;;;;4965872;28;20035;-72
2022/03/23 06:46:37;;;;;;;15.20;8.25;;;10.10;99.90;;;;;;4993390;28;20035;-73
2022/03/23 06:49:02;;;;;;;15.57;8.30;;;10.10;99.90;;;;;;5005938;28;20096;-72
2022/03/23 06:51:28;;;;;;;13.40;7.88;;;10.10;99.90;;;;;;4999480;28;20509;-72
2022/03/23 06:53:54;;;;;;;14.52;7.45;;;10.20;99.90;;;;;;5032707;28;20042;-72
2022/03/23 06:56:20;;;;;;;12.35;7.32;;;10.20;99.90;;;;;;4998911;28;20323;-72
2022/03/23 06:58:46;;;;;;;13.20;8.10;;;10.30;99.90;;;;;;4984080;28;20041;-72
2022/03/23 07:01:12;;;;;;;11.75;8.45;;;10.30;99.90;;;;;;4992402;28;20075;-71
2022/03/23 07:03:37;;;;;;;12.55;7.95;;;10.30;99.90;;;;;;5011567;28;20492;-72
2022/03/23 07:06:03;;;;;;;16.50;8.32;;;10.40;99.90;;;;;;4984078;28;20053;-71
2022/03/23 07:11:14;;;;;;;14.50;9.02;;;10.40;99.90;;;;;;4982270;28;20048;-73
2022/03/23 07:13:40;;;;;;;13.25;7.50;;;10.50;99.90;;;;;;5015750;28;20504;-73
2022/03/23 07:16:06;;;;;;;13.02;7.72;;;10.60;99.90;;;;;;4981044;28;20052;-72
2022/03/23 07:18:32;;;;;;;16.52;8.65;;;10.70;99.90;;;;;;5013468;28;20056;-72
2022/03/23 07:20:58;;;;;;;16.50;8.02;;;10.70;99.90;;;;;;4984055;28;20079;-72
2022/03/23 07:23:23;;;;;;;16.17;8.93;;;10.70;99.90;;;;;;5012663;28;20034;-72
2022/03/23 07:25:49;;;;;;;13.20;8.15;;;10.80;99.90;;;;;;5030681;28;20058;-71
2022/03/23 07:28:15;;;;;;;23.17;8.30;;;10.80;99.90;;;;;;5025914;28;20060;-72
2022/03/23 07:30:41;;;;;;;17.20;8.55;;;10.80;99.90;;;;;;5004489;28;20037;-73
2022/03/23 07:33:09;;;;;;;15.27;8.02;;;10.90;99.90;;;;;;5002943;28;20038;-72
2022/03/23 07:35:34;;;;;;;14.45;7.88;;;10.90;99.90;;;;;;5000690;28;20042;-71
2022/03/23 07:38:00;;;;;;;15.07;8.65;;;11.00;99.90;;;;;;4998052;28;20084;-73
2022/03/23 07:40:26;;;;;;;16.13;8.68;;;11.10;99.90;;;;;;5010890;28;20038;-71
2022/03/23 07:42:52;;;;;;;15.45;8.27;;;11.10;99.90;;;;;;5028227;28;20033;-72
2022/03/23 07:45:18;;;;;;;13.30;8.13;;;11.20;99.90;;;;;;5029157;28;20094;-73
2022/03/23 07:47:45;;;;;;;16.13;8.35;;;11.20;99.90;;;;;;5033684;28;20481;-72
2022/03/23 07:50:10;;;;;;;14.93;8.70;;;11.30;99.90;;;;;;5010511;28;20497;-71
2022/03/23 07:52:36;;;;;;;14.35;7.93;;;11.40;99.90;;;;;;4997781;28;20041;-71
2022/03/23 07:55:03;;;;;;;13.98;7.93;;;11.50;99.90;;;;;;5018946;28;20076;-73
2022/03/23 07:57:29;;;;;;;13.02;7.95;;;11.60;99.90;;;;;;4999094;28;20042;-72
2022/03/23 07:59:55;;;;;;;13.98;8.18;;;11.70;99.90;;;;;;5002797;28;20481;-73
2022/03/23 08:02:26;;;;;;;15.82;8.43;;;11.80;99.90;;;;;;5000991;28;20069;-72
2022/03/23 08:04:54;;;;;;;19.67;8.73;;;11.90;99.90;;;;;;5024436;28;20542;-72
2022/03/23 08:07:20;;;;;;;15.32;7.93;;;12.00;99.90;;;;;;4996771;28;20088;-73
2022/03/23 08:09:46;;;;;;;17.50;8.68;;;12.20;99.90;;;;;;5033007;28;20030;-73
2022/03/23 08:12:12;;;;;;;14.70;7.82;;;12.30;99.90;;;;;;4998120;28;20556;-72
2022/03/23 08:14:38;;;;;;;12.32;7.40;;;12.40;99.90;;;;;;5022314;28;20037;-73
2022/03/23 08:17:04;;;;;;;19.15;8.40;;;12.40;99.90;;;;;;5000352;28;20062;-73
2022/03/23 08:19:30;;;;;;;23.65;8.40;;;12.40;99.90;;;;;;5034991;28;20477;-76
2022/03/23 08:21:56;;;;;;;19.20;8.20;;;12.60;99.90;;;;;;5024631;28;20071;-75
2022/03/23 08:24:22;;;;;;;13.95;7.80;;;12.60;99.90;;;;;;5001296;28;20034;-72
2022/03/23 08:26:48;;;;;;;15.60;8.88;;;12.80;99.90;;;;;;5001560;28;20048;-72
2022/03/23 08:29:14;;;;;;;17.08;8.25;;;12.80;99.90;;;;;;5001214;28;20446;-73
2022/03/23 08:31:40;;;;;;;15.40;7.82;;;13.00;99.90;;;;;;5030147;28;20081;-72
2022/03/23 08:34:06;;;;;;;15.68;8.05;;;13.00;99.90;;;;;;5035191;28;20038;-72
2022/03/23 08:36:32;;;;;;;16.65;8.45;;;13.10;99.90;;;;;;5032280;28;20046;-72
2022/03/23 08:38:58;;;;;;;16.70;8.15;;;13.20;99.90;;;;;;5001341;28;20055;-73
2022/03/23 08:41:24;;;;;;;15.85;6.97;;;13.20;99.90;;;;;;5000601;28;20033;-73
2022/03/23 08:43:50;;;;;;;15.10;7.80;;;13.30;99.90;;;;;;4999170;28;20041;-72
2022/03/23 08:46:16;;;;;;;16.48;7.85;;;13.40;99.90;;;;;;5011569;28;20156;-72
2022/03/23 08:48:42;;;;;;;13.48;7.45;;;13.40;99.90;;;;;;5027521;28;20088;-74
2022/03/23 08:51:08;;;;;;;16.55;7.90;;;13.50;99.90;;;;;;5006825;28;20038;-73
2022/03/23 08:53:34;;;;;;;20.90;7.40;;;13.60;99.90;;;;;;5015629;28;20050;-72
2022/03/23 08:56:01;;;;;;;15.77;7.47;;;13.80;99.90;;;;;;5029852;28;20044;-73
2022/03/23 08:58:27;;;;;;;16.80;7.43;;;14.60;99.90;;;;;;5012539;28;20034;-72
2022/03/23 09:00:53;;;;;;;12.82;7.47;;;14.90;99.90;;;;;;5003963;28;20033;-73
2022/03/23 09:03:18;;;;;;;14.98;7.32;;;15.00;99.90;;;;;;5023728;28;20515;-72
2022/03/23 09:05:45;;;;;;;15.40;7.38;;;15.40;99.90;;;;;;5032829;28;20109;-73
2022/03/23 09:08:11;;;;;;;12.25;6.82;;;15.30;99.90;;;;;;5004716;28;20046;-73
2022/03/23 09:10:37;;;;;;;15.10;7.15;;;15.20;99.90;;;;;;5035911;28;20038;-72
2022/03/23 09:13:03;;;;;;;12.85;6.70;;;15.20;99.90;;;;;;5000645;28;20037;-74
2022/03/23 09:15:30;;;;;;;19.67;7.82;;;15.00;99.90;;;;;;5001330;28;20099;-72
2022/03/23 09:18:03;;;;;;;16.85;7.80;;;14.60;99.90;;;;;;5024418;28;20180;-72
2022/03/23 09:20:29;;;;;;;14.77;7.40;;;14.50;99.90;;;;;;5033479;28;20041;-73
2022/03/23 09:22:57;;;;;;;15.13;7.80;;;14.30;99.90;;;;;;5020455;28;20042;-75
2022/03/23 09:25:23;;;;;;;15.45;7.55;;;14.00;99.90;;;;;;5004671;28;20508;-73
2022/03/23 09:27:50;;;;;;;14.95;7.35;;;13.80;99.90;;;;;;5002402;28;20125;-73
2022/03/23 09:30:17;;;;;;;17.60;7.18;;;13.60;99.90;;;;;;5007118;28;20117;-73
2022/03/23 09:32:44;;;;;;;15.70;6.20;;;13.40;99.90;;;;;;5023086;28;20041;-71
2022/03/23 09:35:11;;;;;;;17.95;7.00;;;13.40;99.90;;;;;;4999771;28;20053;-75
2022/03/23 09:37:47;;;;;;;16.05;6.25;;;13.50;99.90;;;;;;5000632;28;20077;-74
2022/03/23 09:40:15;;;;;;;14.90;6.32;;;13.70;99.90;;;;;;5010658;28;20077;-73
2022/03/23 09:42:43;;;;;;;14.57;6.68;;;13.60;99.90;;;;;;5005313;28;20485;-73
2022/03/23 09:45:15;;;;;;;15.60;6.72;;;13.60;99.90;;;;;;5030104;28;20129;-73
2022/03/23 09:47:41;;;;;;;14.50;6.47;;;13.60;99.90;;;;;;5004214;28;20037;-75
2022/03/23 09:50:09;;;;;;;12.27;5.90;;;13.50;99.90;;;;;;5030023;28;20033;-73
2022/03/23 09:52:35;;;;;;;16.05;5.93;;;13.50;99.90;;;;;;5033420;28;20045;-73
2022/03/23 09:55:04;;;;;;;15.55;6.85;;;13.60;99.90;;;;;;4999698;28;20044;-74
2022/03/23 09:57:30;;;;;;;13.93;7.28;;;13.70;99.90;;;;;;5033451;28;20145;-73
2022/03/23 10:00:10;;;;;;;12.60;6.22;;;13.60;99.90;;;;;;5009384;28;20117;-73
2022/03/23 10:02:39;;;;;;;13.93;6.78;;;13.60;99.90;;;;;;4982781;28;20042;-72
2022/03/23 10:05:43;;;;;;;16.27;6.78;;;13.70;99.90;;;;;;5032721;28;20042;-73
2022/03/23 10:08:38;;;;;;;11.70;6.15;;;13.90;99.90;;;;;;5004886;28;20117;-72
2022/03/23 10:11:23;;;;;;;18.40;7.10;;;14.00;99.90;;;;;;5032118;28;20030;-73
2022/03/23 10:14:26;;;;;;;17.27;6.30;;;14.00;99.90;;;;;;5029864;28;20041;-73
2022/03/23 10:17:29;;;;;;;14.17;5.93;;;14.30;99.90;;;;;;4998368;28;20096;-72
2022/03/23 10:19:55;;;;;;;16.98;6.63;;;14.00;99.90;;;;;;4994974;28;20342;-72
2022/03/23 10:22:26;;;;;;;17.63;6.72;;;13.90;99.90;;;;;;5019144;28;20057;-72
2022/03/23 10:24:52;;;;;;;13.20;6.03;;;13.70;99.90;;;;;;4999039;28;20566;-73
2022/03/23 10:27:22;;;;;;;19.20;7.70;;;13.60;99.90;;;;;;5020654;28;20034;-73
2022/03/23 10:29:52;;;;;;;19.60;6.55;;;13.60;99.90;;;;;;5017417;28;20041;-72
2022/03/23 10:32:21;;;;;;;14.32;5.75;;;13.50;99.90;;;;;;5007385;28;20192;-72
2022/03/23 10:34:54;;;;;;;20.98;7.07;;;13.20;99.90;;;;;;4978898;28;20041;-72
2022/03/23 10:37:26;;;;;;;16.60;6.93;;;13.00;99.90;;;;;;4993776;28;20041;-72
2022/03/23 10:39:54;;;;;;;21.47;7.40;;;12.90;99.90;;;;;;5026219;28;20080;-73
2022/03/23 10:42:23;;;;;;;19.58;8.13;;;12.80;99.90;;;;;;4996114;28;20895;-71
2022/03/23 10:44:50;;;;;;;26.70;7.07;;;12.70;99.90;;;;;;5002997;28;20042;-72
2022/03/23 10:47:31;;;;;;;14.75;7.57;;;12.50;99.90;;;;;;5032636;28;20038;-71
2022/03/23 10:50:07;;;;;;;21.33;7.60;;;12.10;99.90;;;;;;4998227;28;20129;-72
2022/03/23 10:52:33;;;;;;;15.35;6.32;;;11.90;99.90;;;;;;5012792;28;20046;-71
2022/03/23 10:55:02;;;;;;;14.18;7.05;;;11.80;99.90;;;;;;5014074;28;20096;-71
2022/03/23 10:57:55;;;;;;;18.00;7.95;;;11.70;99.90;;;;;;4997287;28;20130;-71
2022/03/23 11:00:30;;;;;;;14.20;8.07;;;11.50;99.90;;;;;;4998273;28;20129;-71
2022/03/23 11:02:57;;;;;;;20.33;8.02;;;11.40;99.90;;;;;;5032540;28;20404;-71
2022/03/23 11:05:37;;;;;;;17.17;7.68;;;11.30;99.90;;;;;;4998935;28;20037;-72
2022/03/23 11:08:12;;;;;;;14.52;7.57;;;11.20;99.90;;;;;;5030396;28;20116;-72
2022/03/23 11:16:25;;;;;;;15.77;7.55;;;10.80;99.90;;;;;;5007987;28;20565;-72
2022/03/23 11:19:08;;;;;;;22.83;8.85;;;10.80;99.90;;;;;;5021835;28;20069;-73
2022/03/23 11:21:58;;;;;;;18.75;9.07;;;10.80;99.90;;;;;;5010178;28;20037;-71
2022/03/23 11:24:26;;;;;;;21.33;9.13;;;10.80;99.90;;;;;;4999516;28;20053;-72
2022/03/23 11:26:55;;;;;;;14.82;7.60;;;10.70;99.90;;;;;;5000859;28;20030;-72
2022/03/23 11:29:21;;;;;;;17.10;8.45;;;10.80;99.90;;;;;;4996108;28;20037;-73
2022/03/23 11:31:48;;;;;;;15.40;8.73;;;10.70;99.90;;;;;;5000269;28;20504;-73
2022/03/23 11:34:18;;;;;;;19.38;9.27;;;10.70;99.90;;;;;;5010902;28;20501;-73
2022/03/23 11:36:47;;;;;;;22.58;8.82;;;10.80;99.90;;;;;;5013719;28;20061;-73
2022/03/23 11:39:13;;;;;;;20.83;8.82;;;10.90;99.90;;;;;;4998646;28;20058;-72
2022/03/23 11:41:43;;;;;;;18.08;8.45;;;10.90;99.90;;;;;;5008162;28;20043;-73
2022/03/23 11:44:15;;;;;;;17.00;8.20;;;10.80;99.90;;;;;;5004818;28;20077;-73
2022/03/23 11:46:42;;;;;;;17.50;8.32;;;10.70;99.90;;;;;;5003418;28;20133;-74
2022/03/23 11:49:14;;;;;;;16.10;8.18;;;10.80;99.90;;;;;;4993981;28;20060;-72
2022/03/23 11:52:17;;;;;;;24.17;10.25;;;10.80;99.90;;;;;;5034754;28;20053;-73
2022/03/23 11:57:53;;;;;;;18.45;8.45;;;10.60;99.90;;;;;;4997910;28;20041;-72
2022/03/23 12:00:20;;;;;;;18.42;7.97;;;10.60;99.90;;;;;;5032809;28;20042;-75
2022/03/23 12:02:46;;;;;;;14.05;7.43;;;10.50;99.90;;;;;;4999570;28;20997;-74
2022/03/23 12:05:31;;;;;;;18.48;7.88;;;10.60;99.90;;;;;;5010681;28;20193;-72
2022/03/23 12:07:58;;;;;;;19.45;7.70;;;10.50;99.90;;;;;;5028491;28;20061;-72
2022/03/23 12:10:31;;;;;;;17.48;7.43;;;10.50;99.90;;;;;;4977385;28;20041;-73
2022/03/23 12:13:17;;;;;;;14.15;7.13;;;10.40;99.90;;;;;;4999559;28;20050;-73
2022/03/23 12:16:06;;;;;;;16.70;6.15;;;10.40;99.90;;;;;;4998544;28;20061;-72
2022/03/23 12:19:07;;;;;;;13.75;6.55;;;10.40;99.90;;;;;;4996594;28;20045;-74
2022/03/23 12:21:53;;;;;;;8.82;5.60;;;10.30;99.90;;;;;;4998084;28;20038;-72
2022/03/23 12:24:32;;;;;;;13.38;5.78;;;10.30;99.90;;;;;;4999507;28;20426;-71
2022/03/23 12:27:03;;;;;;;11.98;5.93;;;10.40;99.90;;;;;;4997476;28;20202;-73
2022/03/23 12:29:33;;;;;;;13.88;6.10;;;10.60;99.90;;;;;;5025649;28;20054;-74
2022/03/23 12:32:05;;;;;;;14.10;6.03;;;10.70;99.90;;;;;;5001214;28;20038;-73
2022/03/23 12:34:32;;;;;;;11.02;6.28;;;10.80;99.90;;;;;;5002409;28;20100;-74
2022/03/23 12:37:09;;;;;;;13.73;6.47;;;11.10;99.90;;;;;;5023354;28;20146;-74
2022/03/23 12:39:47;;;;;;;15.68;6.68;;;11.50;99.90;;;;;;5005469;28;20186;-74
2022/03/23 12:42:13;;;;;;;12.98;6.13;;;11.80;99.90;;;;;;5016170;28;20512;-73
2022/03/23 12:45:03;;;;;;;14.18;6.03;;;12.00;99.90;;;;;;5026853;28;20152;-73
2022/03/23 12:47:31;;;;;;;14.95;6.45;;;12.10;99.90;;;;;;4984631;28;20050;-74
2022/03/23 12:58:27;;;;;;;10.32;4.93;;;12.00;99.90;;;;;;4993206;28;20471;-73
2022/03/23 13:00:55;;;;;;;12.07;5.07;;;12.00;99.90;;;;;;4995850;28;20516;-73
2022/03/23 13:03:22;;;;;;;14.02;5.30;;;12.00;99.90;;;;;;4993770;28;20101;-74
2022/03/23 13:06:00;;;;;;;17.33;5.35;;;12.10;99.90;;;;;;5013944;28;20034;-73
2022/03/23 13:08:33;;;;;;;15.45;5.20;;;12.30;99.90;;;;;;4992828;28;20045;-72
2022/03/23 13:11:08;;;;;;;;;;;12.70;99.90;;;;;;5001573;28;20033;-75
2022/03/23 13:13:39;;;;;;;14.35;5.70;;;13.30;99.90;;;;;;5031308;28;19990;-72
2022/03/23 13:16:15;;;;;;;10.10;5.20;;;13.70;99.90;;;;;;4998469;28;20026;-75
2022/03/23 13:18:41;;;;;;;15.20;4.97;;;15.40;99.90;;;;;;4994723;28;20092;-72
2022/03/23 13:21:10;;;;;;;10.82;4.85;;;16.60;99.90;;;;;;5027797;28;20458;-74